Time;durP1;ratioP1;P1;durP2;ratioP2;P2;SDS_P1;SDS_P2;PMS_P1;PMS_P2;Temp;Humidity;BMP_temperature;BMP_pressure;BME280_temperature;BME280_humidity;BME280_pressure;Samples;Min_cycle;Max_cycle;Signal;HPM_P1;HPM_P2
2022/05/09 00:00:28;;;;;;;;;;;;;;;10.47;100.00;96597.41;1027090;28;20343;-71
2022/05/09 00:00:58;;;;;;;;;;;;;;;10.49;100.00;96597.16;1027288;28;20454;-71
2022/05/09 00:01:29;;;;;;;;;;;;;;;10.48;100.00;96596.38;1027298;28;19928;-72
2022/05/09 00:01:59;;;;;;;;;;;;;;;10.49;100.00;96594.53;1026741;28;19918;-72
2022/05/09 00:02:29;;;;;;;;;;;;;;;10.48;100.00;96585.88;1031054;28;20562;-71
2022/05/09 00:03:00;;;;;;;;;;;;;;;10.48;100.00;96591.13;1034920;28;20397;-73
2022/05/09 00:03:31;;;;;;;;;;;;;;;10.48;100.00;96596.38;1034894;28;19922;-71
2022/05/09 00:04:01;;;;;;;;;;;;;;;10.48;100.00;96593.75;1038990;28;20686;-72
2022/05/09 00:04:32;;;;;;;;;;;;;;;10.47;100.00;96586.91;1035200;28;19929;-72
2022/05/09 00:05:02;;;;;;;;;;;;;;;10.48;100.00;96593.75;1033137;28;19971;-71
2022/05/09 00:05:32;;;;;;;;;;;;;;;10.48;100.00;96585.88;1030746;28;19917;-72
2022/05/09 00:06:02;;;;;;;;;;;;;;;10.47;100.00;96602.66;1031029;28;19941;-73
2022/05/09 00:06:33;;;;;;;;;;;;;;;10.46;100.00;96595.84;1034817;28;19924;-72
2022/05/09 00:07:04;;;;;;;;;;;;;;;10.47;100.00;96588.75;1030755;28;19922;-72
2022/05/09 00:07:34;;;;;;;;;;;;;;;10.48;100.00;96595.59;1026959;28;20396;-72
2022/05/09 00:08:04;;;;;;;;;;;;;;;10.48;100.00;96595.59;1030736;28;19917;-72
2022/05/09 00:08:37;;;;;;;;;;;;;;;10.46;100.00;96590.59;1031221;28;19918;-72
2022/05/09 00:09:08;;;;;;;;;;;;;;;10.47;100.00;96596.63;1031101;28;20380;-72
2022/05/09 00:09:38;;;;;;;;;;;;;;;10.47;100.00;96594.78;1026273;28;19973;-72
2022/05/09 00:10:09;;;;;;;;;;;;;;;10.47;100.00;96589.53;1030961;28;19918;-72
2022/05/09 00:10:39;;;;;;;;;;;;;;;10.48;100.00;96600.81;1031060;28;20421;-72
2022/05/09 00:11:10;;;;;;;;;;;;;;;10.46;100.00;96593.22;1027085;28;19972;-73
2022/05/09 00:11:40;;;;;;;;;;;;;;;10.46;100.00;96589.75;1034757;28;19987;-72
2022/05/09 00:12:11;;;;;;;;;;;;;;;10.46;100.00;96603.69;1031036;28;19917;-71
2022/05/09 00:12:41;;;;;;;;;;;;;;;10.47;100.00;96594.78;1027086;28;20038;-72
2022/05/09 00:13:11;;;;;;;;;;;;;;;10.46;100.00;96590.59;1023687;28;20284;-71
2022/05/09 00:13:42;;;;;;;;;;;;;;;10.46;100.00;96598.47;1030643;28;19943;-71
2022/05/09 00:14:12;;;;;;;;;;;;;;;10.47;100.00;96596.63;1030930;28;20339;-72
2022/05/09 00:14:42;;;;;;;;;;;;;;;10.47;100.00;96592.16;1030838;28;19914;-72
2022/05/09 00:15:13;;;;;;;;;;;;;;;10.46;100.00;96598.47;1034303;28;19925;-71
2022/05/09 00:15:43;;;;;;;;;;;;;;;10.47;100.00;96589.53;1030573;28;19960;-70
2022/05/09 00:16:13;;;;;;;;;;;;;;;10.47;100.00;96592.16;1035084;28;19929;-72
2022/05/09 00:16:44;;;;;;;;;;;;;;;10.47;100.00;96594.78;1034637;28;19940;-72
2022/05/09 00:17:14;;;;;;;;;;;;;;;10.46;100.00;96582.72;1030822;28;20302;-72
2022/05/09 00:17:45;;;;;;;;;;;;;;;10.47;100.00;96591.38;1025109;28;19977;-70
2022/05/09 00:18:17;;;;;;;;;;;;;;;10.46;100.00;96590.59;1026680;28;19918;-73
2022/05/09 00:18:47;;;;;;;;;;;;;;;10.47;100.00;96600.03;1029822;28;19971;-71
2022/05/09 00:19:20;;;;;;;;;;;;;;;10.48;100.00;96595.59;1034826;28;19968;-72
2022/05/09 00:19:50;;;;;;;;;;;;;;;10.48;100.00;96585.88;1033765;28;19917;-71
2022/05/09 00:20:21;;;;;;;;;;;;;;;10.49;100.00;96587.44;1037760;28;19980;-71
2022/05/09 00:20:51;;;;;;;;;;;;;;;10.49;100.00;96587.44;1034826;28;20418;-72
2022/05/09 00:21:21;;;;;;;;;;;;;;;10.49;100.00;96592.69;1035245;28;19925;-70
2022/05/09 00:21:52;;;;;;;;;;;;;;;10.50;100.00;96598.78;1043005;28;20047;-71
2022/05/09 00:22:22;;;;;;;;;;;;;;;10.50;100.00;96583.81;1034881;28;19979;-71
2022/05/09 00:22:53;;;;;;;;;;;;;;;10.49;100.00;96592.69;1039041;28;19948;-72
2022/05/09 00:23:24;;;;;;;;;;;;;;;10.49;100.00;96582.22;1034649;28;19910;-72
2022/05/09 00:23:54;;;;;;;;;;;;;;;10.49;100.00;96584.81;1030988;28;19922;-73
2022/05/09 00:24:24;;;;;;;;;;;;;;;10.48;100.00;96591.13;1030838;28;19965;-72
2022/05/09 00:24:54;;;;;;;;;;;;;;;10.47;100.00;96592.16;1031020;28;20012;-74
2022/05/09 00:25:25;;;;;;;;;;;;;;;10.48;100.00;96585.09;1034610;28;19917;-72
2022/05/09 00:25:55;;;;;;;;;;;;;;;10.47;100.00;96589.53;1034921;28;20036;-75
2022/05/09 00:26:31;;;;;;;;;;;;;;;10.47;100.00;96584.28;1038956;28;20682;-72
2022/05/09 00:27:01;;;;;;;;;;;;;;;10.47;100.00;96588.75;1030740;28;20329;-72
2022/05/09 00:27:32;;;;;;;;;;;;;;;10.46;100.00;96582.72;1030914;28;20451;-73
2022/05/09 00:28:02;;;;;;;;;;;;;;;10.46;100.00;96590.59;1030903;28;20668;-71
2022/05/09 00:28:32;;;;;;;;;;;;;;;10.47;100.00;96588.75;1031877;28;19922;-71
2022/05/09 00:29:03;;;;;;;;;;;;;;;10.45;100.00;96590.81;1034912;28;19929;-71
2022/05/09 00:29:34;;;;;;;;;;;;;;;10.45;100.00;96594.22;1030371;28;20042;-73
2022/05/09 00:30:04;;;;;;;;;;;;;;;10.45;100.00;96588.19;1034706;28;19968;-72
2022/05/09 00:30:35;;;;;;;;;;;;;;;10.43;100.00;96585.00;1030682;28;20404;-71
2022/05/09 00:31:05;;;;;;;;;;;;;;;10.43;100.00;96587.63;1030971;28;19906;-71
2022/05/09 00:31:36;;;;;;;;;;;;;;;10.43;100.00;96583.19;1030744;28;19957;-75
2022/05/09 00:32:06;;;;;;;;;;;;;;;10.42;100.00;96589.44;1030934;28;20695;-72
2022/05/09 00:32:36;;;;;;;;;;;;;;;10.43;100.00;96590.25;1030589;28;20410;-72
2022/05/09 00:33:07;;;;;;;;;;;;;;;10.41;100.00;96585.25;1026952;28;19921;-72
2022/05/09 00:33:37;;;;;;;;;;;;;;;10.41;100.00;96587.88;1027688;28;20562;-71
2022/05/09 00:34:09;;;;;;;;;;;;;;;10.41;100.00;96589.72;1030819;28;19918;-72
2022/05/09 00:34:39;;;;;;;;;;;;;;;10.41;100.00;96590.50;1031042;28;20413;-71
2022/05/09 00:35:10;;;;;;;;;;;;;;;10.40;100.00;96583.66;1031175;28;19917;-71
2022/05/09 00:35:44;;;;;;;;;;;;;;;10.41;100.00;96589.72;1034651;28;19917;-72
2022/05/09 00:36:16;;;;;;;;;;;;;;;10.40;100.00;96591.53;1035518;28;20398;-72
2022/05/09 00:36:47;;;;;;;;;;;;;;;10.41;100.00;96587.09;1036335;28;19910;-72
2022/05/09 00:37:17;;;;;;;;;;;;;;;10.41;100.00;96590.50;1036384;28;19909;-71
2022/05/09 00:37:47;;;;;;;;;;;;;;;10.40;100.00;96596.78;1035407;28;19916;-72
2022/05/09 00:38:17;;;;;;;;;;;;;;;10.43;100.00;96592.88;1035579;28;20689;-71
2022/05/09 00:38:49;;;;;;;;;;;;;;;10.45;100.00;96603.94;1029590;28;19914;-72
2022/05/09 00:39:19;;;;;;;;;;;;;;;10.48;100.00;96595.59;1023158;28;19917;-71
2022/05/09 00:39:50;;;;;;;;;;;;;;;10.50;100.00;96596.94;1018164;29;19918;-71
2022/05/09 00:40:20;;;;;;;;;;;;;;;10.52;100.00;96586.97;1019651;28;19948;-71
2022/05/09 00:41:43;;;;;;;;;;;;;;;10.51;100.00;96593.25;1036064;28;20965;-72
2022/05/09 00:42:13;;;;;;;;;;;;;;;10.52;100.00;96591.44;1038807;28;19913;-71
2022/05/09 00:42:47;;;;;;;;;;;;;;;10.49;100.00;96587.44;1037845;28;20349;-72
2022/05/09 00:43:37;;;;;;;;;;;;;;;10.50;100.00;96588.28;1034898;28;20000;-71
2022/05/09 00:44:09;;;;;;;;;;;;;;;10.48;100.00;96592.97;1034728;28;19913;-72
2022/05/09 00:44:39;;;;;;;;;;;;;;;10.46;100.00;96598.47;1038175;28;20295;-72
2022/05/09 00:45:10;;;;;;;;;;;;;;;10.47;100.00;96594.78;1038857;28;19913;-72
2022/05/09 00:45:43;;;;;;;;;;;;;;;10.46;100.00;96598.47;1034781;28;19917;-71
2022/05/09 00:46:13;;;;;;;;;;;;;;;10.46;100.00;96595.84;1034111;28;19910;-72
2022/05/09 00:46:47;;;;;;;;;;;;;;;10.46;100.00;96598.47;1026775;28;19917;-72
2022/05/09 00:47:20;;;;;;;;;;;;;;;10.46;100.00;96595.84;1023679;28;19974;-71
2022/05/09 00:47:51;;;;;;;;;;;;;;;10.46;100.00;96601.09;1026677;28;19914;-73
2022/05/09 00:48:21;;;;;;;;;;;;;;;10.46;100.00;96598.47;1023554;28;19910;-72
2022/05/09 00:48:51;;;;;;;;;;;;;;;10.44;100.00;96590.03;1019532;28;19919;-72
2022/05/09 00:49:27;;;;;;;;;;;;;;;10.44;100.00;96600.50;1022495;28;19911;-72
2022/05/09 00:49:59;;;;;;;;;;;;;;;10.45;100.00;96596.84;1022576;28;20340;-71
2022/05/09 00:50:29;;;;;;;;;;;;;;;10.44;100.00;96595.25;1023626;28;19911;-71
2022/05/09 00:50:59;;;;;;;;;;;;;;;10.45;100.00;96590.81;1023285;28;19911;-72
2022/05/09 00:51:30;;;;;;;;;;;;;;;10.44;100.00;96592.63;1026589;28;19922;-72
2022/05/09 00:52:03;;;;;;;;;;;;;;;10.43;100.00;96596.31;1022721;29;20570;-71
2022/05/09 00:52:54;;;;;;;;;;;;;;;10.43;100.00;96598.94;1027454;28;19918;-72
2022/05/09 00:53:24;;;;;;;;;;;;;;;10.43;100.00;96591.06;1037382;28;20369;-72
2022/05/09 00:53:55;;;;;;;;;;;;;;;10.42;100.00;96589.44;1038906;28;19919;-71
2022/05/09 00:54:26;;;;;;;;;;;;;;;10.43;100.00;96592.88;1034837;28;19921;-73
2022/05/09 00:55:04;;;;;;;;;;;;;;;10.42;100.00;96596.53;1031049;28;19921;-72
2022/05/09 00:55:40;;;;;;;;;;;;;;;10.42;100.00;96589.44;1034740;28;19925;-73
2022/05/09 00:56:19;;;;;;;;;;;;;;;10.43;100.00;96593.69;1032698;28;19960;-72
2022/05/09 00:56:50;;;;;;;;;;;;;;;10.41;100.00;96590.50;1029435;28;19917;-72
2022/05/09 00:57:22;;;;;;;;;;;;;;;10.43;100.00;96592.88;1030175;28;19917;-71
2022/05/09 00:58:13;;;;;;;;;;;;;;;10.42;100.00;96589.44;1025165;28;19918;-72
2022/05/09 00:58:46;;;;;;;;;;;;;;;10.41;100.00;96589.72;1016300;28;19925;-72
2022/05/09 00:59:16;;;;;;;;;;;;;;;10.40;100.00;96582.88;1026174;28;19957;-71
2022/05/09 00:59:50;;;;;;;;;;;;;;;10.40;100.00;96590.75;1020786;29;20430;-72
2022/05/09 01:00:21;;;;;;;;;;;;;;;10.38;100.00;96583.09;1020282;28;19956;-72
2022/05/09 01:00:52;;;;;;;;;;;;;;;10.39;100.00;96592.56;1019732;29;20005;-72
2022/05/09 01:01:22;;;;;;;;;;;;;;;10.36;100.00;96588.59;1023817;28;19921;-72
2022/05/09 01:01:54;;;;;;;;;;;;;;;10.36;100.00;96587.78;1027432;28;19918;-73
2022/05/09 01:02:24;;;;;;;;;;;;;;;10.34;100.00;96585.41;1022805;28;19921;-71
2022/05/09 01:03:07;;;;;;;;;;;;;;;10.34;100.00;96588.03;1026741;28;19964;-71
2022/05/09 01:03:41;;;;;;;;;;;;;;;10.33;100.00;96583.03;1030647;28;19914;-72
2022/05/09 01:04:30;;;;;;;;;;;;;;;10.33;100.00;96586.47;1034625;28;19920;-71
2022/05/09 01:05:00;;;;;;;;;;;;;;;10.32;100.00;96581.44;1030430;28;19926;-71
2022/05/09 01:05:32;;;;;;;;;;;;;;;10.33;100.00;96583.03;1029182;28;19987;-72
2022/05/09 01:06:02;;;;;;;;;;;;;;;10.31;100.00;96585.88;1032150;28;20397;-73
2022/05/09 01:06:33;;;;;;;;;;;;;;;10.31;100.00;96585.09;1030979;28;19917;-71
2022/05/09 01:07:03;;;;;;;;;;;;;;;10.31;100.00;96579.84;1026818;28;19926;-70
2022/05/09 01:07:33;;;;;;;;;;;;;;;10.31;100.00;96580.66;1022794;29;20418;-73
2022/05/09 01:08:05;;;;;;;;;;;;;;;10.30;100.00;96583.53;1018970;28;19923;-71
2022/05/09 01:08:38;;;;;;;;;;;;;;;10.29;100.00;96582.69;1030859;28;19917;-71
2022/05/09 01:09:12;;;;;;;;;;;;;;;10.29;100.00;96589.78;1031424;28;20008;-72
2022/05/09 01:09:42;;;;;;;;;;;;;;;10.28;100.00;96581.13;1034178;28;19949;-75
2022/05/09 01:10:13;;;;;;;;;;;;;;;10.28;100.00;96580.31;1038564;28;20572;-72
2022/05/09 01:10:44;;;;;;;;;;;;;;;10.27;100.00;96581.38;1034780;28;20005;-72
2022/05/09 01:11:16;;;;;;;;;;;;;;;10.27;100.00;96578.75;1030776;28;20360;-72
2022/05/09 01:11:46;;;;;;;;;;;;;;;10.27;100.00;96584.00;1029797;28;19918;-72
2022/05/09 01:12:18;;;;;;;;;;;;;;;10.26;100.00;96582.38;1026563;28;19925;-71
2022/05/09 01:12:49;;;;;;;;;;;;;;;10.25;100.00;96586.03;1027417;28;19919;-72
2022/05/09 01:13:19;;;;;;;;;;;;;;;10.23;100.00;96578.41;1026846;28;19922;-73
2022/05/09 01:13:53;;;;;;;;;;;;;;;10.23;100.00;96583.66;1030949;28;19968;-73
2022/05/09 01:14:25;;;;;;;;;;;;;;;10.21;100.00;96577.84;1025771;28;19940;-72
2022/05/09 01:15:03;;;;;;;;;;;;;;;10.23;100.00;96577.59;1024563;28;19918;-73
2022/05/09 01:15:33;;;;;;;;;;;;;;;10.21;100.00;96577.84;1026708;28;19937;-71
2022/05/09 01:16:04;;;;;;;;;;;;;;;10.21;100.00;96582.28;1025151;28;19924;-72
2022/05/09 01:16:34;;;;;;;;;;;;;;;10.20;100.00;96581.50;1026982;28;19918;-72
2022/05/09 01:17:05;;;;;;;;;;;;;;;10.20;100.00;96578.09;1026750;28;19918;-71
2022/05/09 01:17:39;;;;;;;;;;;;;;;10.21;100.00;96580.47;1025972;28;19922;-73
2022/05/09 01:18:10;;;;;;;;;;;;;;;10.20;100.00;96578.09;1023128;28;19979;-72
2022/05/09 01:18:40;;;;;;;;;;;;;;;10.20;100.00;96578.09;1025021;28;19990;-74
2022/05/09 01:19:31;;;;;;;;;;;;;;;10.20;100.00;96578.09;1023187;28;20593;-71
2022/05/09 01:20:01;;;;;;;;;;;;;;;10.19;100.00;96576.47;1029609;28;19928;-72
2022/05/09 01:20:32;;;;;;;;;;;;;;;10.19;100.00;96581.72;1034576;28;19925;-72
2022/05/09 01:21:25;;;;;;;;;;;;;;;10.17;100.00;96574.09;1033491;28;19910;-72
2022/05/09 01:21:56;;;;;;;;;;;;;;;10.18;100.00;96580.16;1034359;28;19993;-74
2022/05/09 01:22:29;;;;;;;;;;;;;;;10.17;100.00;96578.56;1034565;28;19948;-73
2022/05/09 01:23:00;;;;;;;;;;;;;;;10.16;100.00;96577.78;1034296;28;20400;-72
2022/05/09 01:23:33;;;;;;;;;;;;;;;10.14;100.00;96580.63;1030675;28;19918;-71
2022/05/09 01:24:05;;;;;;;;;;;;;;;10.14;100.00;96580.63;1027239;28;19926;-71
2022/05/09 01:24:35;;;;;;;;;;;;;;;10.12;100.00;96580.06;1031300;28;19958;-72
2022/05/09 01:25:07;;;;;;;;;;;;;;;10.11;100.00;96575.84;1023118;28;19915;-71
2022/05/09 01:25:38;;;;;;;;;;;;;;;10.12;100.00;96582.66;1018650;29;20052;-72
2022/05/09 01:26:08;;;;;;;;;;;;;;;10.12;100.00;96581.88;1022830;29;19918;-71
2022/05/09 01:26:38;;;;;;;;;;;;;;;10.11;100.00;96578.47;1023477;28;19919;-71
2022/05/09 01:27:09;;;;;;;;;;;;;;;10.10;100.00;96579.50;1026445;28;19946;-71
2022/05/09 01:27:40;;;;;;;;;;;;;;;10.11;100.00;96575.06;1030520;28;20820;-71
2022/05/09 01:28:11;;;;;;;;;;;;;;;10.11;100.00;96578.47;1026720;28;20442;-73
2022/05/09 01:28:42;;;;;;;;;;;;;;;10.10;100.00;96573.47;1026807;28;20012;-71
2022/05/09 01:29:21;;;;;;;;;;;;;;;10.11;100.00;96581.09;1034907;28;19921;-72
2022/05/09 01:29:56;;;;;;;;;;;;;;;10.11;100.00;96580.31;1031484;28;20000;-71
2022/05/09 01:30:45;;;;;;;;;;;;;;;10.12;100.00;96584.50;1032533;28;20008;-72
2022/05/09 01:31:19;;;;;;;;;;;;;;;10.12;100.00;96581.88;1034874;28;20025;-71
2022/05/09 01:31:49;;;;;;;;;;;;;;;10.12;100.00;96577.44;1031551;28;19913;-71
2022/05/09 01:32:21;;;;;;;;;;;;;;;10.12;100.00;96576.63;1027503;28;20597;-72
2022/05/09 01:33:03;;;;;;;;;;;;;;;10.10;100.00;96573.47;1028298;28;19920;-72
2022/05/09 01:33:37;;;;;;;;;;;;;;;10.10;100.00;96581.34;1027466;28;19978;-71
2022/05/09 01:34:12;;;;;;;;;;;;;;;10.07;100.00;96580.00;1030377;28;19910;-71
2022/05/09 01:34:43;;;;;;;;;;;;;;;10.07;100.00;96584.44;1031517;28;19917;-71
2022/05/09 01:35:21;;;;;;;;;;;;;;;10.06;100.00;96581.03;1033530;28;19917;-72
2022/05/09 01:35:52;;;;;;;;;;;;;;;10.06;100.00;96583.66;1033523;28;20302;-72
2022/05/09 01:36:26;;;;;;;;;;;;;;;10.04;100.00;96580.47;1031468;28;19917;-71
2022/05/09 01:36:57;;;;;;;;;;;;;;;10.03;100.00;96578.09;1031443;28;19989;-71
2022/05/09 01:37:28;;;;;;;;;;;;;;;10.02;100.00;96577.28;1032929;28;20486;-72
2022/05/09 01:38:06;;;;;;;;;;;;;;;10.00;100.00;96579.34;1031368;28;20024;-72
2022/05/09 01:38:40;;;;;;;;;;;;;;;10.00;100.00;96578.56;1024644;28;19925;-72
2022/05/09 01:39:11;;;;;;;;;;;;;;;9.99;100.00;96579.56;1027390;28;19917;-71
2022/05/09 01:39:44;;;;;;;;;;;;;;;9.97;100.00;96576.41;1025878;28;19954;-72
2022/05/09 01:40:15;;;;;;;;;;;;;;;9.99;100.00;96577.75;1032417;28;19918;-72
2022/05/09 01:40:45;;;;;;;;;;;;;;;9.96;100.00;96570.38;1035820;28;19921;-72
2022/05/09 01:41:15;;;;;;;;;;;;;;;9.91;100.00;96575.53;1039397;28;19913;-75
2022/05/09 01:41:46;;;;;;;;;;;;;;;9.93;100.00;96583.97;1035706;28;19905;-72
2022/05/09 01:42:17;;;;;;;;;;;;;;;9.92;100.00;96577.09;1028824;28;19910;-72
2022/05/09 01:42:47;;;;;;;;;;;;;;;9.90;100.00;96571.31;1023620;29;19974;-71
2022/05/09 01:43:50;;;;;;;;;;;;;;;9.89;100.00;96583.63;1019422;28;19934;-71
2022/05/09 01:44:20;;;;;;;;;;;;;;;9.85;100.00;96579.09;1019044;29;19915;-72
2022/05/09 01:44:51;;;;;;;;;;;;;;;9.84;100.00;96583.53;1019345;29;19924;-73
2022/05/09 01:45:21;;;;;;;;;;;;;;;9.82;100.00;96577.72;1025775;28;19978;-71
2022/05/09 01:45:51;;;;;;;;;;;;;;;9.82;100.00;96576.94;1035707;28;19922;-71
2022/05/09 01:46:22;;;;;;;;;;;;;;;9.80;100.00;96579.81;1039803;28;19939;-71
2022/05/09 01:49:31;;;;;;;;;;;;;;;9.75;100.00;96576.28;1039770;28;19928;-72
2022/05/09 01:50:02;;;;;;;;;;;;;;;9.74;100.00;96572.09;1030846;28;20774;-71
2022/05/09 01:50:33;;;;;;;;;;;;;;;9.74;100.00;96582.56;1027695;28;19949;-72
2022/05/09 01:51:03;;;;;;;;;;;;;;;9.74;100.00;96575.50;1031420;28;19957;-72
2022/05/09 01:51:34;;;;;;;;;;;;;;;9.71;100.00;96581.22;1031188;28;20413;-71
2022/05/09 01:52:05;;;;;;;;;;;;;;;9.71;100.00;96583.03;1031883;28;19917;-73
2022/05/09 01:52:36;;;;;;;;;;;;;;;9.70;100.00;96578.84;1035360;28;19944;-71
2022/05/09 01:53:06;;;;;;;;;;;;;;;9.68;100.00;96572.00;1035730;28;19909;-71
2022/05/09 01:53:39;;;;;;;;;;;;;;;9.67;100.00;96572.25;1036125;28;19953;-72
2022/05/09 01:54:10;;;;;;;;;;;;;;;9.68;100.00;96572.00;1034812;28;19913;-72
2022/05/09 01:54:41;;;;;;;;;;;;;;;9.67;100.00;96572.25;1040640;28;19917;-72
2022/05/09 01:55:11;;;;;;;;;;;;;;;9.65;100.00;96575.09;1036152;28;20322;-72
2022/05/09 01:55:42;;;;;;;;;;;;;;;9.65;100.00;96575.09;1031888;28;20009;-71
2022/05/09 01:56:12;;;;;;;;;;;;;;;9.64;100.00;96578.75;1032137;28;20390;-72
2022/05/09 01:56:43;;;;;;;;;;;;;;;9.65;100.00;96577.69;1027891;28;19910;-73
2022/05/09 01:57:13;;;;;;;;;;;;;;;9.66;100.00;96579.31;1035965;28;19968;-72
2022/05/09 01:57:44;;;;;;;;;;;;;;;9.65;100.00;96577.69;1032357;28;19910;-72
2022/05/09 01:58:14;;;;;;;;;;;;;;;9.64;100.00;96576.13;1036121;28;19937;-71
2022/05/09 01:58:44;;;;;;;;;;;;;;;9.64;100.00;96577.94;1040318;28;19960;-72
2022/05/09 01:59:15;;;;;;;;;;;;;;;9.63;100.00;96576.38;1040230;28;19939;-72
2022/05/09 01:59:45;;;;;;;;;;;;;;;9.64;100.00;96576.13;1033203;28;19968;-72
2022/05/09 02:00:15;;;;;;;;;;;;;;;9.48;100.00;96550.69;1028069;28;19914;-75
2022/05/09 02:00:46;;;;;;;;;;;;;;;9.62;100.00;96577.38;1024279;28;19911;-72
2022/05/09 02:01:17;;;;;;;;;;;;;;;9.61;100.00;96576.59;1023894;28;19914;-71
2022/05/09 02:01:48;;;;;;;;;;;;;;;9.60;100.00;96574.22;1028361;28;19910;-71
2022/05/09 02:02:19;;;;;;;;;;;;;;;9.61;100.00;96576.59;1032238;28;19949;-72
2022/05/09 02:02:49;;;;;;;;;;;;;;;9.61;100.00;96581.03;1036927;28;20428;-71
2022/05/09 02:03:20;;;;;;;;;;;;;;;9.58;100.00;96571.81;1044164;28;19932;-72
2022/05/09 02:03:51;;;;;;;;;;;;;;;9.58;100.00;96579.66;1040379;28;19956;-72
2022/05/09 02:04:22;;;;;;;;;;;;;;;9.59;100.00;96580.47;1040085;28;19952;-72
2022/05/09 02:04:52;;;;;;;;;;;;;;;9.58;100.00;96574.44;1032122;28;19910;-70
2022/05/09 02:05:23;;;;;;;;;;;;;;;9.59;100.00;96573.44;1028316;28;20545;-72
2022/05/09 02:05:53;;;;;;;;;;;;;;;9.58;100.00;96577.06;1032208;28;20301;-71
2022/05/09 02:06:23;;;;;;;;;;;;;;;9.61;100.00;96579.22;1027742;28;19918;-72
2022/05/09 02:06:55;;;;;;;;;;;;;;;9.60;100.00;96574.22;1028154;28;19918;-72
2022/05/09 02:07:26;;;;;;;;;;;;;;;9.59;100.00;96568.19;1032344;28;19924;-71
2022/05/09 02:07:57;;;;;;;;;;;;;;;9.59;100.00;96577.84;1040556;28;19924;-71
2022/05/09 02:08:27;;;;;;;;;;;;;;;9.57;100.00;96572.06;1044521;28;20331;-72
2022/05/09 02:08:57;;;;;;;;;;;;;;;9.56;100.00;96581.75;1044593;28;19952;-72
2022/05/09 02:09:28;;;;;;;;;;;;;;;9.57;100.00;96577.31;1040281;28;20338;-72
2022/05/09 02:09:58;;;;;;;;;;;;;;;9.58;100.00;96573.66;1035157;28;19928;-72
2022/05/09 02:10:28;;;;;;;;;;;;;;;9.57;100.00;96577.31;1036071;28;19916;-71
2022/05/09 02:10:59;;;;;;;;;;;;;;;9.56;100.00;96573.88;1036158;28;19972;-72
2022/05/09 02:11:29;;;;;;;;;;;;;;;9.56;100.00;96573.88;1036156;28;20307;-72
2022/05/09 02:11:59;;;;;;;;;;;;;;;9.55;100.00;96571.50;1032021;28;20017;-71
2022/05/09 02:12:30;;;;;;;;;;;;;;;9.55;100.00;96571.50;1028069;28;19981;-72
2022/05/09 02:13:00;;;;;;;;;;;;;;;9.53;100.00;96579.59;1028115;28;19922;-72
2022/05/09 02:13:30;;;;;;;;;;;;;;;9.53;100.00;96571.75;1031360;28;19925;-72
2022/05/09 02:14:04;;;;;;;;;;;;;;;9.52;100.00;96575.38;1036043;28;20362;-72
2022/05/09 02:14:34;;;;;;;;;;;;;;;9.52;100.00;96578.00;1036008;28;19930;-72
2022/05/09 02:15:05;;;;;;;;;;;;;;;9.52;100.00;96571.97;1031791;28;20668;-72
2022/05/09 02:15:35;;;;;;;;;;;;;;;9.49;100.00;96575.88;1033125;28;20126;-72
2022/05/09 02:16:05;;;;;;;;;;;;;;;9.48;100.00;96574.25;1036079;28;19917;-72
2022/05/09 02:16:36;;;;;;;;;;;;;;;9.47;100.00;96579.75;1028572;28;19922;-72
2022/05/09 02:17:06;;;;;;;;;;;;;;;9.50;100.00;96580.06;1024490;29;20863;-72
2022/05/09 02:17:37;;;;;;;;;;;;;;;9.50;100.00;96580.06;1028087;28;19928;-70
2022/05/09 02:18:07;;;;;;;;;;;;;;;9.48;100.00;96582.13;1032212;28;19925;-71
2022/05/09 02:18:40;;;;;;;;;;;;;;;9.47;100.00;96577.13;1028916;28;19918;-72
2022/05/09 02:19:10;;;;;;;;;;;;;;;9.45;100.00;96577.34;1032070;28;20314;-72
2022/05/09 02:19:42;;;;;;;;;;;;;;;9.44;100.00;96575.75;1031737;28;19920;-71
2022/05/09 02:20:12;;;;;;;;;;;;;;;9.44;100.00;96581.78;1027302;28;19915;-73
2022/05/09 02:20:43;;;;;;;;;;;;;;;9.42;100.00;96577.81;1024238;28;19970;-70
2022/05/09 02:21:13;;;;;;;;;;;;;;;9.43;100.00;96574.19;1032270;28;20399;-72
2022/05/09 02:21:45;;;;;;;;;;;;;;;9.41;100.00;96576.22;1028090;28;20284;-71
2022/05/09 02:22:15;;;;;;;;;;;;;;;9.41;100.00;96586.69;1032257;28;19922;-72
2022/05/09 02:22:46;;;;;;;;;;;;;;;9.42;100.00;96581.25;1032199;28;19929;-71
2022/05/09 02:23:17;;;;;;;;;;;;;;;9.45;100.00;96582.56;1032388;28;19968;-72
2022/05/09 02:23:47;;;;;;;;;;;;;;;9.42;100.00;96581.25;1032289;28;19957;-71
2022/05/09 02:24:17;;;;;;;;;;;;;;;9.48;100.00;96582.13;1036163;28;19913;-71
2022/05/09 02:24:48;;;;;;;;;;;;;;;9.47;100.00;96579.75;1040278;28;19921;-71
2022/05/09 02:25:29;;;;;;;;;;;;;;;9.45;100.00;96585.19;1033455;28;19918;-73
2022/05/09 02:25:59;;;;;;;;;;;;;;;9.45;100.00;96574.72;1032140;28;19925;-70
2022/05/09 02:26:30;;;;;;;;;;;;;;;9.43;100.00;96582.03;1028271;28;19926;-71
2022/05/09 02:27:00;;;;;;;;;;;;;;;9.42;100.00;96583.88;1025190;28;19922;-73
2022/05/09 02:27:32;;;;;;;;;;;;;;;9.46;100.00;96581.56;1028100;28;19922;-71
2022/05/09 02:28:02;;;;;;;;;;;;;;;9.43;100.00;96580.19;1028350;28;19922;-71
2022/05/09 02:28:33;;;;;;;;;;;;;;;9.42;100.00;96580.41;1032457;28;19926;-72
2022/05/09 02:29:06;;;;;;;;;;;;;;;9.39;100.00;96583.53;1035835;28;19924;-72
2022/05/09 02:29:37;;;;;;;;;;;;;;;9.36;100.00;96576.94;1036198;28;19921;-71
2022/05/09 02:30:08;;;;;;;;;;;;;;;9.35;100.00;96583.19;1032707;28;19920;-71
2022/05/09 02:30:39;;;;;;;;;;;;;;;9.35;100.00;96580.56;1028448;28;19918;-72
2022/05/09 02:31:09;;;;;;;;;;;;;;;9.33;100.00;96580.03;1024549;29;19910;-72
2022/05/09 02:31:39;;;;;;;;;;;;;;;9.33;100.00;96574.00;1024991;28;19922;-73
2022/05/09 02:32:11;;;;;;;;;;;;;;;9.31;100.00;96587.31;1035606;28;19918;-72
2022/05/09 02:32:42;;;;;;;;;;;;;;;9.29;100.00;96585.94;1032465;28;20411;-71
2022/05/09 02:33:12;;;;;;;;;;;;;;;9.26;100.00;96579.38;1027850;28;19922;-72
2022/05/09 02:33:42;;;;;;;;;;;;;;;9.23;100.00;96585.06;1025714;28;20373;-72
2022/05/09 02:34:13;;;;;;;;;;;;;;;9.22;100.00;96580.84;1027862;28;19921;-72
2022/05/09 02:34:43;;;;;;;;;;;;;;;9.23;100.00;96585.06;1028189;28;19919;-71
2022/05/09 02:35:15;;;;;;;;;;;;;;;9.23;100.00;96584.28;1027896;28;19924;-71
2022/05/09 02:35:46;;;;;;;;;;;;;;;9.20;100.00;96581.06;1028454;28;19918;-72
2022/05/09 02:36:16;;;;;;;;;;;;;;;9.18;100.00;96584.94;1036192;28;20009;-71
2022/05/09 02:36:46;;;;;;;;;;;;;;;9.18;100.00;96588.34;1036175;28;19925;-72
2022/05/09 02:37:18;;;;;;;;;;;;;;;9.20;100.00;96590.75;1039057;28;19984;-72
2022/05/09 02:37:48;;;;;;;;;;;;;;;9.18;100.00;96580.50;1040430;28;19913;-72
2022/05/09 02:38:19;;;;;;;;;;;;;;;9.15;100.00;96583.63;1036033;28;19996;-72
2022/05/09 02:38:49;;;;;;;;;;;;;;;9.18;100.00;96583.13;1036063;28;20010;-73
2022/05/09 02:39:19;;;;;;;;;;;;;;;9.16;100.00;96579.16;1036185;28;19921;-70
2022/05/09 02:39:51;;;;;;;;;;;;;;;9.15;100.00;96577.56;1031323;28;20595;-71
2022/05/09 02:40:23;;;;;;;;;;;;;;;9.12;100.00;96578.84;1027989;28;19923;-72
2022/05/09 02:40:54;;;;;;;;;;;;;;;9.11;100.00;96577.22;1027485;28;19925;-72
2022/05/09 02:41:25;;;;;;;;;;;;;;;9.10;100.00;96580.88;1025047;28;19921;-72
2022/05/09 02:41:57;;;;;;;;;;;;;;;9.09;100.00;96575.88;1028925;28;19922;-74
2022/05/09 02:42:27;;;;;;;;;;;;;;;9.05;100.00;96572.91;1040024;28;19968;-71
2022/05/09 02:42:57;;;;;;;;;;;;;;;9.05;100.00;96582.59;1035768;28;20421;-71
2022/05/09 02:43:28;;;;;;;;;;;;;;;9.06;100.00;96579.75;1031834;28;19925;-72
2022/05/09 02:43:59;;;;;;;;;;;;;;;9.04;100.00;96576.56;1025723;28;19918;-72
2022/05/09 02:44:29;;;;;;;;;;;;;;;9.04;100.00;96581.00;1028312;28;19969;-71
2022/05/09 02:44:59;;;;;;;;;;;;;;;9.05;100.00;96575.53;1028140;28;20005;-72
2022/05/09 02:45:29;;;;;;;;;;;;;;;9.03;100.00;96579.44;1032096;28;20472;-72
2022/05/09 02:46:03;;;;;;;;;;;;;;;9.00;100.00;96572.81;1040278;28;19921;-71
2022/05/09 02:46:34;;;;;;;;;;;;;;;9.04;100.00;96581.00;1044310;28;20346;-71
2022/05/09 02:47:04;;;;;;;;;;;;;;;9.03;100.00;96580.22;1044318;28;19928;-72
2022/05/09 02:47:34;;;;;;;;;;;;;;;9.01;100.00;96574.41;1043618;28;19924;-72